Nina — ICMG — position and weather

sailwx.info

Track history (hours):
 
Tides and Currents Weather Stations Pressure Air Temp Water Temp Dewpoint Dewpoint Depression Visibility Wind Speed Wind Dir Waves Ship Positions

Nina

Last reported at 2016-Dec-08 15:33 UTC. Time now 2016-Dec-08 22:05 UTC.
Position N 39°26' W 009°57'.

Length 180 m; draft 9.8 m.

Type: Ship (hazmat cat A). MMSI: 247239700.

Date/timePositionNaut miles runAvg speedWind from/ knotsBaromVisibWave heightAir tempDewpointWater temp
2016-Dec-08 15:33N 39°26' W 009°57'1312.8
2016-Dec-08 14:33N 39°13' W 009°56'1312.7
2016-Dec-08 13:33N 39°00' W 009°57'1312.7
2016-Dec-08 12:33N 38°47' W 009°57'1313.0
2016-Dec-08 11:33N 38°35' W 009°54'1312.9
2016-Dec-08 10:32N 38°22' W 009°51'1412.9
2016-Dec-08 09:26N 38°08' W 009°47'23911.2
2016-Dec-07 12:09N 35°58' W 005°36'711.5
2016-Dec-07 11:33N 35°60' W 005°28'1212.2
2016-Dec-07 10:33N 36°02' W 005°13'10612.7
2016-Dec-07 02:15N 36°19' W 003°03'1213.7
2016-Dec-07 01:21N 36°21' W 002°48'1113.9
2016-Dec-07 00:33N 36°22' W 002°35'1414.3
2016-Dec-06 23:33N 36°25' W 002°17'3113.4
2016-Dec-06 21:14N 36°34' W 001°40'1012.7
2016-Dec-06 20:26N 36°37' W 001°28'  
2016-Dec-03 00:33N 37°02' E 013°38'1212.4
2016-Dec-02 23:33N 36°56' E 013°52'1212.5
2016-Dec-02 22:33N 36°50' E 014°06'1212.4
2016-Dec-02 21:33N 36°45' E 014°20'1212.1
2016-Dec-02 20:33N 36°41' E 014°34'8210.3
2016-Dec-02 12:32N 37°30' E 015°56'1312.8
2016-Dec-02 11:32N 37°41' E 016°06'42310.5
2016-Nov-30 19:10N 44°22' E 013°08'914.0
2016-Nov-30 18:34N 44°30' E 013°04'1413.8
2016-Nov-30 17:33N 44°43' E 012°58'1312.3
2016-Nov-30 16:28N 44°55' E 012°50'9 9.7
2016-Nov-30 15:33N 45°03' E 012°44'10 9.6
2016-Nov-30 14:33N 45°10' E 012°35'10 9.8
2016-Nov-30 13:33N 45°17' E 012°26'9 8.5
2016-Nov-30 12:32N 45°21' E 012°15'0 0.0
2016-Nov-30 11:32N 45°21' E 012°15'0 0.0
2016-Nov-30 10:32N 45°21' E 012°15'0 0.0
2016-Nov-30 09:32N 45°21' E 012°15'0 0.0
2016-Nov-30 08:32N 45°21' E 012°15'0 0.0
2016-Nov-30 07:32N 45°21' E 012°15'0 0.0
2016-Nov-30 06:32N 45°21' E 012°15'0 0.0
2016-Nov-30 05:32N 45°21' E 012°15'0 0.0
2016-Nov-30 04:32N 45°21' E 012°15'0 0.0
2016-Nov-30 03:32N 45°21' E 012°15'0 0.0
2016-Nov-30 02:32N 45°21' E 012°15'0 0.0
2016-Nov-30 01:32N 45°21' E 012°15'0 0.0
2016-Nov-30 00:32N 45°21' E 012°15'0 0.0
2016-Nov-29 23:32N 45°21' E 012°15'0 0.0
2016-Nov-29 22:32N 45°21' E 012°15'0 0.0
2016-Nov-29 21:32N 45°21' E 012°15'0 0.0
2016-Nov-29 20:32N 45°21' E 012°15'0 0.0
2016-Nov-29 19:29N 45°21' E 012°15'0 0.0
2016-Nov-29 18:32N 45°21' E 012°15'0 0.0
2016-Nov-29 17:32N 45°21' E 012°15'0 0.0
2016-Nov-29 16:32N 45°21' E 012°15'0 0.0
2016-Nov-29 15:32N 45°21' E 012°15'0 0.0
2016-Nov-29 14:32N 45°21' E 012°15'0 0.0
2016-Nov-29 13:32N 45°21' E 012°15'0 0.0
2016-Nov-29 12:32N 45°21' E 012°15'0 0.0
2016-Nov-29 11:32N 45°21' E 012°15'0 0.0
2016-Nov-29 10:32N 45°21' E 012°15'0 0.0
2016-Nov-29 09:32N 45°21' E 012°15'0 0.0
2016-Nov-29 08:32N 45°21' E 012°15'0 0.0
2016-Nov-29 07:32N 45°21' E 012°15'0 0.3
2016-Nov-29 06:34N 45°21' E 012°15'8 8.3
2016-Nov-29 05:33N 45°19' E 012°26'0 0.3
2016-Nov-29 04:30N 45°19' E 012°26'0 0.0
2016-Nov-29 03:30N 45°19' E 012°26'0 0.0
2016-Nov-29 02:30N 45°19' E 012°26'0 0.0
2016-Nov-29 01:30N 45°19' E 012°26'0 0.0
2016-Nov-29 00:31N 45°19' E 012°26'0 0.0
2016-Nov-28 23:31N 45°19' E 012°26'0 0.0
2016-Nov-28 22:30N 45°19' E 012°26'0 0.0
2016-Nov-28 21:30N 45°19' E 012°26'0 0.0
2016-Nov-28 20:31N 45°19' E 012°26'0 0.0
2016-Nov-28 19:31N 45°19' E 012°26'0 0.0
2016-Nov-28 18:31N 45°19' E 012°26'0 0.0
2016-Nov-28 17:30N 45°19' E 012°26'0 0.0
2016-Nov-28 16:30N 45°19' E 012°26'  
Track history (hours):
 
Tides and Currents Weather Stations Pressure Air Temp Water Temp Dewpoint Dewpoint Depression Visibility Wind Speed Wind Dir Waves Ship Positions

Nina

Last reported at 2016-Dec-08 15:33 UTC. Time now 2016-Dec-08 22:05 UTC.
Position N 39°26' W 009°57'.

Length 180 m; draft 9.8 m.

Type: Ship (hazmat cat A). MMSI: 247239700.

Date/timePositionNaut miles runAvg speedWind from/ knotsBaromVisibWave heightAir tempDewpointWater temp
2016-Dec-08 15:33N 39°26' W 009°57'1312.8
2016-Dec-08 14:33N 39°13' W 009°56'1312.7
2016-Dec-08 13:33N 39°00' W 009°57'1312.7
2016-Dec-08 12:33N 38°47' W 009°57'1313.0
2016-Dec-08 11:33N 38°35' W 009°54'1312.9
2016-Dec-08 10:32N 38°22' W 009°51'1412.9
2016-Dec-08 09:26N 38°08' W 009°47'23911.2
2016-Dec-07 12:09N 35°58' W 005°36'711.5
2016-Dec-07 11:33N 35°60' W 005°28'1212.2
2016-Dec-07 10:33N 36°02' W 005°13'10612.7
2016-Dec-07 02:15N 36°19' W 003°03'1213.7
2016-Dec-07 01:21N 36°21' W 002°48'1113.9
2016-Dec-07 00:33N 36°22' W 002°35'1414.3
2016-Dec-06 23:33N 36°25' W 002°17'3113.4
2016-Dec-06 21:14N 36°34' W 001°40'1012.7
2016-Dec-06 20:26N 36°37' W 001°28'  
2016-Dec-03 00:33N 37°02' E 013°38'1212.4
2016-Dec-02 23:33N 36°56' E 013°52'1212.5
2016-Dec-02 22:33N 36°50' E 014°06'1212.4
2016-Dec-02 21:33N 36°45' E 014°20'1212.1
2016-Dec-02 20:33N 36°41' E 014°34'8210.3
2016-Dec-02 12:32N 37°30' E 015°56'1312.8
2016-Dec-02 11:32N 37°41' E 016°06'42310.5
2016-Nov-30 19:10N 44°22' E 013°08'914.0
2016-Nov-30 18:34N 44°30' E 013°04'1413.8
2016-Nov-30 17:33N 44°43' E 012°58'1312.3
2016-Nov-30 16:28N 44°55' E 012°50'9 9.7
2016-Nov-30 15:33N 45°03' E 012°44'10 9.6
2016-Nov-30 14:33N 45°10' E 012°35'10 9.8
2016-Nov-30 13:33N 45°17' E 012°26'9 8.5
2016-Nov-30 12:32N 45°21' E 012°15'0 0.0
2016-Nov-30 11:32N 45°21' E 012°15'0 0.0
2016-Nov-30 10:32N 45°21' E 012°15'0 0.0
2016-Nov-30 09:32N 45°21' E 012°15'0 0.0
2016-Nov-30 08:32N 45°21' E 012°15'0 0.0
2016-Nov-30 07:32N 45°21' E 012°15'0 0.0
2016-Nov-30 06:32N 45°21' E 012°15'0 0.0
2016-Nov-30 05:32N 45°21' E 012°15'0 0.0
2016-Nov-30 04:32N 45°21' E 012°15'0 0.0
2016-Nov-30 03:32N 45°21' E 012°15'0 0.0
2016-Nov-30 02:32N 45°21' E 012°15'0 0.0
2016-Nov-30 01:32N 45°21' E 012°15'0 0.0
2016-Nov-30 00:32N 45°21' E 012°15'0 0.0
2016-Nov-29 23:32N 45°21' E 012°15'0 0.0
2016-Nov-29 22:32N 45°21' E 012°15'0 0.0
2016-Nov-29 21:32N 45°21' E 012°15'0 0.0
2016-Nov-29 20:32N 45°21' E 012°15'0 0.0
2016-Nov-29 19:29N 45°21' E 012°15'0 0.0
2016-Nov-29 18:32N 45°21' E 012°15'0 0.0
2016-Nov-29 17:32N 45°21' E 012°15'0 0.0
2016-Nov-29 16:32N 45°21' E 012°15'0 0.0
2016-Nov-29 15:32N 45°21' E 012°15'0 0.0
2016-Nov-29 14:32N 45°21' E 012°15'0 0.0
2016-Nov-29 13:32N 45°21' E 012°15'0 0.0
2016-Nov-29 12:32N 45°21' E 012°15'0 0.0
2016-Nov-29 11:32N 45°21' E 012°15'0 0.0
2016-Nov-29 10:32N 45°21' E 012°15'0 0.0
2016-Nov-29 09:32N 45°21' E 012°15'0 0.0
2016-Nov-29 08:32N 45°21' E 012°15'0 0.0
2016-Nov-29 07:32N 45°21' E 012°15'0 0.3
2016-Nov-29 06:34N 45°21' E 012°15'8 8.3
2016-Nov-29 05:33N 45°19' E 012°26'0 0.3
2016-Nov-29 04:30N 45°19' E 012°26'0 0.0
2016-Nov-29 03:30N 45°19' E 012°26'0 0.0
2016-Nov-29 02:30N 45°19' E 012°26'0 0.0
2016-Nov-29 01:30N 45°19' E 012°26'0 0.0
2016-Nov-29 00:31N 45°19' E 012°26'0 0.0
2016-Nov-28 23:31N 45°19' E 012°26'0 0.0
2016-Nov-28 22:30N 45°19' E 012°26'0 0.0
2016-Nov-28 21:30N 45°19' E 012°26'0 0.0
2016-Nov-28 20:31N 45°19' E 012°26'0 0.0
2016-Nov-28 19:31N 45°19' E 012°26'0 0.0
2016-Nov-28 18:31N 45°19' E 012°26'0 0.0
2016-Nov-28 17:30N 45°19' E 012°26'0 0.0
2016-Nov-28 16:30N 45°19' E 012°26'  

Dump ship's entire track history